sensor_id;sensor_type;location;lat;lon;timestamp;P1;durP1;ratioP1;P2;durP2;ratioP2
62947;SDS011;51940;52.126;-0.994;2023-01-04T00:01:03;3.20;;;1.10;;
62947;SDS011;51940;52.126;-0.994;2023-01-04T00:03:31;2.80;;;0.90;;
62947;SDS011;51940;52.126;-0.994;2023-01-04T00:05:57;2.30;;;1.10;;
62947;SDS011;51940;52.126;-0.994;2023-01-04T00:08:24;2.30;;;1.00;;
62947;SDS011;51940;52.126;-0.994;2023-01-04T00:10:50;1.70;;;1.00;;
62947;SDS011;51940;52.126;-0.994;2023-01-04T00:13:16;3.00;;;1.00;;
62947;SDS011;51940;52.126;-0.994;2023-01-04T00:15:42;1.70;;;0.90;;
62947;SDS011;51940;52.126;-0.994;2023-01-04T00:18:07;2.00;;;1.10;;
62947;SDS011;51940;52.126;-0.994;2023-01-04T00:20:33;2.50;;;1.00;;
62947;SDS011;51940;52.126;-0.994;2023-01-04T00:22:59;2.70;;;1.10;;
62947;SDS011;51940;52.126;-0.994;2023-01-04T00:25:24;2.10;;;1.00;;
62947;SDS011;51940;52.126;-0.994;2023-01-04T00:27:50;2.10;;;1.30;;
62947;SDS011;51940;52.126;-0.994;2023-01-04T00:30:16;1.60;;;0.90;;
62947;SDS011;51940;52.126;-0.994;2023-01-04T00:32:42;2.40;;;1.40;;
62947;SDS011;51940;52.126;-0.994;2023-01-04T00:35:08;4.40;;;1.00;;
62947;SDS011;51940;52.126;-0.994;2023-01-04T00:37:34;2.30;;;1.20;;
62947;SDS011;51940;52.126;-0.994;2023-01-04T00:40:00;3.40;;;1.20;;
62947;SDS011;51940;52.126;-0.994;2023-01-04T00:42:26;3.30;;;1.20;;
62947;SDS011;51940;52.126;-0.994;2023-01-04T00:44:51;2.70;;;1.10;;
62947;SDS011;51940;52.126;-0.994;2023-01-04T00:47:16;2.10;;;1.00;;
62947;SDS011;51940;52.126;-0.994;2023-01-04T00:49:42;3.80;;;1.20;;
62947;SDS011;51940;52.126;-0.994;2023-01-04T00:52:07;3.00;;;1.00;;
62947;SDS011;51940;52.126;-0.994;2023-01-04T00:54:33;4.30;;;1.40;;
62947;SDS011;51940;52.126;-0.994;2023-01-04T00:56:59;6.80;;;1.30;;
62947;SDS011;51940;52.126;-0.994;2023-01-04T00:59:25;7.20;;;2.40;;
62947;SDS011;51940;52.126;-0.994;2023-01-04T01:01:52;6.30;;;1.20;;
62947;SDS011;51940;52.126;-0.994;2023-01-04T01:04:18;4.60;;;1.40;;
62947;SDS011;51940;52.126;-0.994;2023-01-04T01:06:46;6.20;;;1.60;;
62947;SDS011;51940;52.126;-0.994;2023-01-04T01:09:13;4.20;;;1.20;;
62947;SDS011;51940;52.126;-0.994;2023-01-04T01:11:39;7.40;;;1.60;;
62947;SDS011;51940;52.126;-0.994;2023-01-04T01:14:06;7.30;;;1.50;;
62947;SDS011;51940;52.126;-0.994;2023-01-04T01:16:32;8.00;;;1.40;;
62947;SDS011;51940;52.126;-0.994;2023-01-04T01:18:58;6.30;;;1.50;;
62947;SDS011;51940;52.126;-0.994;2023-01-04T01:21:25;4.00;;;1.40;;
62947;SDS011;51940;52.126;-0.994;2023-01-04T01:23:53;5.30;;;1.50;;
62947;SDS011;51940;52.126;-0.994;2023-01-04T01:26:20;5.40;;;1.40;;
62947;SDS011;51940;52.126;-0.994;2023-01-04T01:28:47;4.80;;;1.20;;
62947;SDS011;51940;52.126;-0.994;2023-01-04T01:31:15;6.80;;;1.50;;
62947;SDS011;51940;52.126;-0.994;2023-01-04T01:33:46;4.80;;;1.40;;
62947;SDS011;51940;52.126;-0.994;2023-01-04T01:36:13;6.60;;;1.40;;
62947;SDS011;51940;52.126;-0.994;2023-01-04T01:38:41;5.20;;;1.40;;
62947;SDS011;51940;52.126;-0.994;2023-01-04T01:41:09;6.40;;;1.40;;
62947;SDS011;51940;52.126;-0.994;2023-01-04T01:46:51;9.50;;;1.30;;
62947;SDS011;51940;52.126;-0.994;2023-01-04T01:51:47;4.80;;;1.30;;
62947;SDS011;51940;52.126;-0.994;2023-01-04T01:54:16;4.10;;;1.10;;
62947;SDS011;51940;52.126;-0.994;2023-01-04T01:56:45;4.00;;;1.40;;
62947;SDS011;51940;52.126;-0.994;2023-01-04T01:59:14;7.20;;;1.30;;
62947;SDS011;51940;52.126;-0.994;2023-01-04T02:01:42;3.90;;;1.10;;
62947;SDS011;51940;52.126;-0.994;2023-01-04T02:04:08;4.20;;;1.20;;
62947;SDS011;51940;52.126;-0.994;2023-01-04T02:06:42;4.30;;;1.40;;
62947;SDS011;51940;52.126;-0.994;2023-01-04T02:09:09;2.60;;;1.00;;
62947;SDS011;51940;52.126;-0.994;2023-01-04T02:11:36;3.80;;;1.20;;
62947;SDS011;51940;52.126;-0.994;2023-01-04T02:14:02;6.10;;;1.30;;
62947;SDS011;51940;52.126;-0.994;2023-01-04T02:17:09;4.40;;;1.10;;
62947;SDS011;51940;52.126;-0.994;2023-01-04T02:28:01;4.00;;;1.40;;
62947;SDS011;51940;52.126;-0.994;2023-01-04T02:40:55;8.10;;;1.60;;
62947;SDS011;51940;52.126;-0.994;2023-01-04T02:43:47;4.00;;;1.40;;
62947;SDS011;51940;52.126;-0.994;2023-01-04T02:46:39;3.70;;;1.50;;
62947;SDS011;51940;52.126;-0.994;2023-01-04T02:49:11;3.40;;;1.20;;
62947;SDS011;51940;52.126;-0.994;2023-01-04T02:51:55;3.70;;;1.20;;
62947;SDS011;51940;52.126;-0.994;2023-01-04T02:54:21;7.30;;;1.50;;
62947;SDS011;51940;52.126;-0.994;2023-01-04T03:05:24;6.60;;;1.70;;
62947;SDS011;51940;52.126;-0.994;2023-01-04T03:11:01;7.60;;;1.90;;
62947;SDS011;51940;52.126;-0.994;2023-01-04T03:13:50;6.70;;;1.50;;
62947;SDS011;51940;52.126;-0.994;2023-01-04T03:16:20;6.90;;;1.60;;
62947;SDS011;51940;52.126;-0.994;2023-01-04T03:18:52;7.60;;;1.60;;
62947;SDS011;51940;52.126;-0.994;2023-01-04T03:21:21;7.50;;;1.60;;
62947;SDS011;51940;52.126;-0.994;2023-01-04T03:23:51;8.70;;;1.80;;
62947;SDS011;51940;52.126;-0.994;2023-01-04T03:26:41;6.60;;;1.60;;
62947;SDS011;51940;52.126;-0.994;2023-01-04T03:29:54;5.10;;;1.40;;
62947;SDS011;51940;52.126;-0.994;2023-01-04T03:32:53;6.80;;;1.40;;
62947;SDS011;51940;52.126;-0.994;2023-01-04T03:36:16;6.00;;;2.00;;
62947;SDS011;51940;52.126;-0.994;2023-01-04T03:38:43;7.30;;;1.50;;
62947;SDS011;51940;52.126;-0.994;2023-01-04T03:41:52;6.70;;;1.70;;
62947;SDS011;51940;52.126;-0.994;2023-01-04T03:47:57;6.20;;;2.10;;
62947;SDS011;51940;52.126;-0.994;2023-01-04T03:51:18;11.80;;;2.40;;
62947;SDS011;51940;52.126;-0.994;2023-01-04T03:53:50;4.40;;;1.60;;
62947;SDS011;51940;52.126;-0.994;2023-01-04T03:56:28;6.30;;;1.50;;
62947;SDS011;51940;52.126;-0.994;2023-01-04T03:58:56;10.80;;;1.90;;
62947;SDS011;51940;52.126;-0.994;2023-01-04T04:01:23;5.10;;;1.40;;
62947;SDS011;51940;52.126;-0.994;2023-01-04T04:03:50;5.40;;;1.40;;
62947;SDS011;51940;52.126;-0.994;2023-01-04T04:06:35;5.10;;;1.60;;
62947;SDS011;51940;52.126;-0.994;2023-01-04T04:09:19;6.20;;;1.40;;
62947;SDS011;51940;52.126;-0.994;2023-01-04T04:11:46;10.30;;;1.60;;
62947;SDS011;51940;52.126;-0.994;2023-01-04T04:14:11;6.80;;;2.00;;
62947;SDS011;51940;52.126;-0.994;2023-01-04T04:16:37;5.20;;;1.30;;
62947;SDS011;51940;52.126;-0.994;2023-01-04T04:19:03;5.70;;;1.30;;
62947;SDS011;51940;52.126;-0.994;2023-01-04T04:21:28;3.60;;;1.00;;
62947;SDS011;51940;52.126;-0.994;2023-01-04T04:23:54;2.90;;;1.10;;
62947;SDS011;51940;52.126;-0.994;2023-01-04T04:26:20;4.50;;;1.20;;
62947;SDS011;51940;52.126;-0.994;2023-01-04T04:28:46;6.70;;;1.20;;
62947;SDS011;51940;52.126;-0.994;2023-01-04T04:31:11;4.60;;;1.10;;
62947;SDS011;51940;52.126;-0.994;2023-01-04T04:33:37;3.60;;;0.90;;
62947;SDS011;51940;52.126;-0.994;2023-01-04T04:36:04;4.60;;;0.90;;
62947;SDS011;51940;52.126;-0.994;2023-01-04T04:38:30;1.80;;;0.90;;
62947;SDS011;51940;52.126;-0.994;2023-01-04T04:40:55;2.70;;;0.90;;
62947;SDS011;51940;52.126;-0.994;2023-01-04T04:43:40;4.40;;;0.90;;
62947;SDS011;51940;52.126;-0.994;2023-01-04T04:46:05;1.80;;;0.90;;
62947;SDS011;51940;52.126;-0.994;2023-01-04T04:48:31;3.80;;;0.80;;
62947;SDS011;51940;52.126;-0.994;2023-01-04T04:50:56;0.90;;;0.80;;
62947;SDS011;51940;52.126;-0.994;2023-01-04T04:53:21;2.90;;;1.50;;
62947;SDS011;51940;52.126;-0.994;2023-01-04T04:55:49;2.60;;;0.70;;
62947;SDS011;51940;52.126;-0.994;2023-01-04T04:58:16;3.20;;;1.60;;
62947;SDS011;51940;52.126;-0.994;2023-01-04T05:00:42;3.60;;;1.10;;
62947;SDS011;51940;52.126;-0.994;2023-01-04T05:03:07;2.80;;;0.90;;
62947;SDS011;51940;52.126;-0.994;2023-01-04T05:05:32;2.30;;;1.00;;
62947;SDS011;51940;52.126;-0.994;2023-01-04T05:07:58;1.40;;;0.60;;
62947;SDS011;51940;52.126;-0.994;2023-01-04T05:10:23;0.60;;;0.60;;
62947;SDS011;51940;52.126;-0.994;2023-01-04T05:12:48;1.70;;;0.80;;
62947;SDS011;51940;52.126;-0.994;2023-01-04T05:15:39;1.00;;;0.70;;
62947;SDS011;51940;52.126;-0.994;2023-01-04T05:18:07;1.50;;;0.70;;
62947;SDS011;51940;52.126;-0.994;2023-01-04T05:20:34;2.40;;;1.40;;
62947;SDS011;51940;52.126;-0.994;2023-01-04T05:23:00;2.80;;;0.60;;
62947;SDS011;51940;52.126;-0.994;2023-01-04T05:25:25;1.00;;;0.70;;
62947;SDS011;51940;52.126;-0.994;2023-01-04T05:27:51;1.50;;;0.80;;
62947;SDS011;51940;52.126;-0.994;2023-01-04T05:30:17;1.40;;;0.70;;
62947;SDS011;51940;52.126;-0.994;2023-01-04T05:33:02;1.10;;;0.70;;
62947;SDS011;51940;52.126;-0.994;2023-01-04T05:35:29;1.10;;;0.70;;
62947;SDS011;51940;52.126;-0.994;2023-01-04T05:37:54;0.70;;;0.60;;
62947;SDS011;51940;52.126;-0.994;2023-01-04T05:40:20;2.00;;;0.80;;
62947;SDS011;51940;52.126;-0.994;2023-01-04T05:42:46;0.90;;;0.80;;
62947;SDS011;51940;52.126;-0.994;2023-01-04T05:45:12;0.70;;;0.70;;
62947;SDS011;51940;52.126;-0.994;2023-01-04T05:47:39;1.10;;;0.80;;
62947;SDS011;51940;52.126;-0.994;2023-01-04T05:50:05;0.80;;;0.80;;
62947;SDS011;51940;52.126;-0.994;2023-01-04T05:52:32;1.00;;;0.70;;
62947;SDS011;51940;52.126;-0.994;2023-01-04T05:54:58;2.00;;;0.80;;
62947;SDS011;51940;52.126;-0.994;2023-01-04T05:57:23;0.90;;;0.80;;
62947;SDS011;51940;52.126;-0.994;2023-01-04T05:59:48;1.20;;;0.70;;
62947;SDS011;51940;52.126;-0.994;2023-01-04T06:02:15;1.90;;;0.70;;
62947;SDS011;51940;52.126;-0.994;2023-01-04T06:04:45;1.60;;;0.90;;
62947;SDS011;51940;52.126;-0.994;2023-01-04T06:07:11;0.90;;;0.60;;
62947;SDS011;51940;52.126;-0.994;2023-01-04T06:09:37;1.40;;;0.80;;
62947;SDS011;51940;52.126;-0.994;2023-01-04T06:12:02;0.70;;;0.70;;
62947;SDS011;51940;52.126;-0.994;2023-01-04T06:14:28;1.20;;;0.80;;
62947;SDS011;51940;52.126;-0.994;2023-01-04T06:16:53;1.70;;;0.80;;
62947;SDS011;51940;52.126;-0.994;2023-01-04T06:19:18;2.10;;;0.90;;
62947;SDS011;51940;52.126;-0.994;2023-01-04T06:21:44;1.40;;;0.80;;
62947;SDS011;51940;52.126;-0.994;2023-01-04T06:24:09;0.80;;;0.80;;
62947;SDS011;51940;52.126;-0.994;2023-01-04T06:26:35;0.90;;;0.80;;
62947;SDS011;51940;52.126;-0.994;2023-01-04T06:29:01;0.80;;;0.80;;
62947;SDS011;51940;52.126;-0.994;2023-01-04T06:31:27;1.00;;;0.90;;
62947;SDS011;51940;52.126;-0.994;2023-01-04T06:33:52;1.60;;;0.90;;
62947;SDS011;51940;52.126;-0.994;2023-01-04T06:36:17;2.40;;;1.00;;
62947;SDS011;51940;52.126;-0.994;2023-01-04T06:38:43;1.90;;;1.00;;
62947;SDS011;51940;52.126;-0.994;2023-01-04T06:41:08;3.80;;;1.60;;
62947;SDS011;51940;52.126;-0.994;2023-01-04T06:43:33;1.70;;;1.10;;
62947;SDS011;51940;52.126;-0.994;2023-01-04T06:45:59;2.90;;;1.20;;
62947;SDS011;51940;52.126;-0.994;2023-01-04T06:48:26;1.80;;;1.10;;
62947;SDS011;51940;52.126;-0.994;2023-01-04T06:50:51;2.50;;;1.50;;
62947;SDS011;51940;52.126;-0.994;2023-01-04T06:53:17;2.70;;;1.00;;
62947;SDS011;51940;52.126;-0.994;2023-01-04T06:55:43;1.50;;;1.10;;
62947;SDS011;51940;52.126;-0.994;2023-01-04T06:58:09;1.40;;;1.10;;
62947;SDS011;51940;52.126;-0.994;2023-01-04T07:00:34;3.40;;;1.50;;
62947;SDS011;51940;52.126;-0.994;2023-01-04T07:02:59;2.40;;;1.20;;
62947;SDS011;51940;52.126;-0.994;2023-01-04T07:05:25;3.70;;;1.10;;
62947;SDS011;51940;52.126;-0.994;2023-01-04T07:07:50;7.40;;;1.20;;
62947;SDS011;51940;52.126;-0.994;2023-01-04T07:10:16;4.40;;;1.20;;
62947;SDS011;51940;52.126;-0.994;2023-01-04T07:12:41;2.70;;;1.30;;
62947;SDS011;51940;52.126;-0.994;2023-01-04T07:15:06;4.20;;;1.20;;
62947;SDS011;51940;52.126;-0.994;2023-01-04T07:17:32;2.80;;;1.30;;
62947;SDS011;51940;52.126;-0.994;2023-01-04T07:19:58;5.90;;;1.40;;
62947;SDS011;51940;52.126;-0.994;2023-01-04T07:22:23;1.20;;;1.10;;
62947;SDS011;51940;52.126;-0.994;2023-01-04T07:24:48;3.40;;;1.30;;
62947;SDS011;51940;52.126;-0.994;2023-01-04T07:27:14;3.00;;;1.20;;
62947;SDS011;51940;52.126;-0.994;2023-01-04T07:29:39;3.70;;;1.60;;
62947;SDS011;51940;52.126;-0.994;2023-01-04T07:32:08;2.70;;;1.10;;
62947;SDS011;51940;52.126;-0.994;2023-01-04T07:34:33;5.10;;;1.60;;
62947;SDS011;51940;52.126;-0.994;2023-01-04T07:36:59;5.70;;;1.90;;
62947;SDS011;51940;52.126;-0.994;2023-01-04T07:39:24;4.00;;;1.70;;
62947;SDS011;51940;52.126;-0.994;2023-01-04T07:41:49;3.70;;;1.60;;
62947;SDS011;51940;52.126;-0.994;2023-01-04T07:44:15;6.20;;;1.30;;
62947;SDS011;51940;52.126;-0.994;2023-01-04T07:46:45;2.60;;;1.30;;
62947;SDS011;51940;52.126;-0.994;2023-01-04T07:49:12;4.00;;;1.50;;
62947;SDS011;51940;52.126;-0.994;2023-01-04T07:51:39;3.60;;;1.30;;
62947;SDS011;51940;52.126;-0.994;2023-01-04T07:54:05;2.70;;;1.10;;
62947;SDS011;51940;52.126;-0.994;2023-01-04T07:56:30;2.80;;;1.40;;
62947;SDS011;51940;52.126;-0.994;2023-01-04T07:58:55;6.00;;;1.60;;
62947;SDS011;51940;52.126;-0.994;2023-01-04T08:01:23;3.70;;;1.40;;
62947;SDS011;51940;52.126;-0.994;2023-01-04T08:03:50;5.50;;;1.60;;
62947;SDS011;51940;52.126;-0.994;2023-01-04T08:06:16;7.50;;;2.00;;
62947;SDS011;51940;52.126;-0.994;2023-01-04T08:08:42;5.30;;;1.70;;
62947;SDS011;51940;52.126;-0.994;2023-01-04T08:11:09;6.40;;;1.70;;
62947;SDS011;51940;52.126;-0.994;2023-01-04T08:13:36;6.90;;;2.10;;
62947;SDS011;51940;52.126;-0.994;2023-01-04T08:16:01;9.20;;;2.20;;
62947;SDS011;51940;52.126;-0.994;2023-01-04T08:18:27;11.80;;;2.60;;
62947;SDS011;51940;52.126;-0.994;2023-01-04T08:21:06;11.90;;;2.20;;
62947;SDS011;51940;52.126;-0.994;2023-01-04T08:23:34;8.50;;;2.20;;
62947;SDS011;51940;52.126;-0.994;2023-01-04T08:26:04;12.70;;;2.50;;
62947;SDS011;51940;52.126;-0.994;2023-01-04T08:28:31;7.80;;;2.70;;
62947;SDS011;51940;52.126;-0.994;2023-01-04T08:30:58;14.50;;;2.90;;
62947;SDS011;51940;52.126;-0.994;2023-01-04T08:33:28;15.10;;;3.30;;
62947;SDS011;51940;52.126;-0.994;2023-01-04T08:35:53;12.50;;;3.20;;
62947;SDS011;51940;52.126;-0.994;2023-01-04T08:38:18;13.10;;;3.00;;
62947;SDS011;51940;52.126;-0.994;2023-01-04T08:40:44;16.70;;;3.10;;
62947;SDS011;51940;52.126;-0.994;2023-01-04T08:43:09;11.80;;;3.10;;
62947;SDS011;51940;52.126;-0.994;2023-01-04T08:45:34;13.40;;;2.80;;
62947;SDS011;51940;52.126;-0.994;2023-01-04T08:48:00;14.10;;;2.80;;
62947;SDS011;51940;52.126;-0.994;2023-01-04T08:50:25;17.50;;;3.30;;
62947;SDS011;51940;52.126;-0.994;2023-01-04T08:52:51;18.70;;;3.20;;
62947;SDS011;51940;52.126;-0.994;2023-01-04T08:55:16;17.80;;;3.00;;
62947;SDS011;51940;52.126;-0.994;2023-01-04T08:57:41;16.80;;;3.50;;
62947;SDS011;51940;52.126;-0.994;2023-01-04T09:00:07;20.00;;;2.90;;
62947;SDS011;51940;52.126;-0.994;2023-01-04T09:02:34;22.80;;;3.40;;
62947;SDS011;51940;52.126;-0.994;2023-01-04T09:04:59;13.30;;;3.30;;
62947;SDS011;51940;52.126;-0.994;2023-01-04T09:07:28;20.70;;;3.20;;
62947;SDS011;51940;52.126;-0.994;2023-01-04T09:09:55;16.90;;;3.00;;
62947;SDS011;51940;52.126;-0.994;2023-01-04T09:12:21;18.20;;;3.10;;
62947;SDS011;51940;52.126;-0.994;2023-01-04T09:14:48;17.40;;;3.20;;
62947;SDS011;51940;52.126;-0.994;2023-01-04T09:17:13;20.80;;;3.70;;
62947;SDS011;51940;52.126;-0.994;2023-01-04T09:19:39;18.60;;;3.00;;
62947;SDS011;51940;52.126;-0.994;2023-01-04T09:22:04;22.60;;;3.10;;
62947;SDS011;51940;52.126;-0.994;2023-01-04T09:24:31;18.90;;;3.10;;
62947;SDS011;51940;52.126;-0.994;2023-01-04T09:26:57;24.00;;;3.30;;
62947;SDS011;51940;52.126;-0.994;2023-01-04T09:29:23;20.60;;;3.40;;
62947;SDS011;51940;52.126;-0.994;2023-01-04T09:31:50;17.50;;;3.00;;
62947;SDS011;51940;52.126;-0.994;2023-01-04T09:34:16;18.30;;;3.50;;
62947;SDS011;51940;52.126;-0.994;2023-01-04T09:36:41;20.30;;;3.00;;
62947;SDS011;51940;52.126;-0.994;2023-01-04T09:39:07;13.30;;;3.40;;
62947;SDS011;51940;52.126;-0.994;2023-01-04T09:41:43;25.30;;;3.40;;
62947;SDS011;51940;52.126;-0.994;2023-01-04T09:46:48;24.10;;;3.60;;
62947;SDS011;51940;52.126;-0.994;2023-01-04T09:49:28;18.60;;;3.60;;
62947;SDS011;51940;52.126;-0.994;2023-01-04T09:52:22;18.40;;;4.00;;
62947;SDS011;51940;52.126;-0.994;2023-01-04T09:54:56;19.80;;;4.40;;
62947;SDS011;51940;52.126;-0.994;2023-01-04T09:57:25;15.90;;;3.10;;
62947;SDS011;51940;52.126;-0.994;2023-01-04T09:59:55;21.80;;;3.70;;
62947;SDS011;51940;52.126;-0.994;2023-01-04T10:02:32;19.40;;;3.40;;
62947;SDS011;51940;52.126;-0.994;2023-01-04T10:05:04;16.90;;;3.30;;
62947;SDS011;51940;52.126;-0.994;2023-01-04T10:07:32;20.20;;;3.60;;
62947;SDS011;51940;52.126;-0.994;2023-01-04T10:09:58;20.30;;;3.30;;
62947;SDS011;51940;52.126;-0.994;2023-01-04T10:13:00;21.90;;;3.70;;
62947;SDS011;51940;52.126;-0.994;2023-01-04T10:31:52;21.20;;;3.70;;
62947;SDS011;51940;52.126;-0.994;2023-01-04T10:34:28;17.00;;;4.00;;
62947;SDS011;51940;52.126;-0.994;2023-01-04T10:37:08;23.80;;;4.40;;
62947;SDS011;51940;52.126;-0.994;2023-01-04T10:39:38;17.90;;;3.10;;
62947;SDS011;51940;52.126;-0.994;2023-01-04T10:42:13;26.80;;;3.30;;
62947;SDS011;51940;52.126;-0.994;2023-01-04T10:44:43;19.00;;;3.10;;
62947;SDS011;51940;52.126;-0.994;2023-01-04T10:47:41;18.20;;;3.50;;
62947;SDS011;51940;52.126;-0.994;2023-01-04T10:50:47;23.90;;;4.10;;
62947;SDS011;51940;52.126;-0.994;2023-01-04T10:53:17;18.40;;;4.00;;
62947;SDS011;51940;52.126;-0.994;2023-01-04T10:55:50;19.40;;;3.70;;
62947;SDS011;51940;52.126;-0.994;2023-01-04T11:01:21;16.10;;;3.30;;
62947;SDS011;51940;52.126;-0.994;2023-01-04T11:04:04;19.30;;;3.50;;
62947;SDS011;51940;52.126;-0.994;2023-01-04T11:06:39;14.10;;;3.40;;
62947;SDS011;51940;52.126;-0.994;2023-01-04T11:09:31;22.80;;;3.80;;
62947;SDS011;51940;52.126;-0.994;2023-01-04T11:11:57;20.90;;;3.50;;
62947;SDS011;51940;52.126;-0.994;2023-01-04T11:14:24;13.50;;;2.80;;
62947;SDS011;51940;52.126;-0.994;2023-01-04T11:16:50;19.20;;;3.70;;
62947;SDS011;51940;52.126;-0.994;2023-01-04T11:19:20;18.30;;;3.50;;
62947;SDS011;51940;52.126;-0.994;2023-01-04T11:21:53;20.20;;;4.10;;
62947;SDS011;51940;52.126;-0.994;2023-01-04T11:24:23;22.00;;;4.10;;
62947;SDS011;51940;52.126;-0.994;2023-01-04T11:26:55;17.80;;;3.80;;
62947;SDS011;51940;52.126;-0.994;2023-01-04T11:29:25;22.50;;;3.60;;
62947;SDS011;51940;52.126;-0.994;2023-01-04T11:31:58;23.60;;;3.60;;
62947;SDS011;51940;52.126;-0.994;2023-01-04T11:34:42;18.00;;;3.70;;
62947;SDS011;51940;52.126;-0.994;2023-01-04T11:40:08;19.80;;;3.10;;
62947;SDS011;51940;52.126;-0.994;2023-01-04T11:42:40;22.80;;;3.40;;
62947;SDS011;51940;52.126;-0.994;2023-01-04T11:45:15;16.00;;;3.30;;
62947;SDS011;51940;52.126;-0.994;2023-01-04T11:47:46;24.20;;;3.70;;
62947;SDS011;51940;52.126;-0.994;2023-01-04T11:50:41;21.00;;;3.50;;
62947;SDS011;51940;52.126;-0.994;2023-01-04T11:58:32;16.50;;;3.30;;
62947;SDS011;51940;52.126;-0.994;2023-01-04T12:00:57;18.80;;;3.10;;
62947;SDS011;51940;52.126;-0.994;2023-01-04T12:03:27;18.90;;;2.90;;
62947;SDS011;51940;52.126;-0.994;2023-01-04T12:05:55;18.00;;;3.20;;
62947;SDS011;51940;52.126;-0.994;2023-01-04T12:10:59;15.20;;;2.80;;
62947;SDS011;51940;52.126;-0.994;2023-01-04T12:13:26;19.00;;;3.00;;
62947;SDS011;51940;52.126;-0.994;2023-01-04T12:15:58;16.10;;;2.70;;
62947;SDS011;51940;52.126;-0.994;2023-01-04T12:18:43;15.90;;;2.40;;
62947;SDS011;51940;52.126;-0.994;2023-01-04T12:21:22;14.20;;;2.80;;
62947;SDS011;51940;52.126;-0.994;2023-01-04T12:23:50;14.70;;;3.00;;
62947;SDS011;51940;52.126;-0.994;2023-01-04T12:26:18;11.90;;;2.80;;
62947;SDS011;51940;52.126;-0.994;2023-01-04T12:28:46;18.20;;;3.30;;
62947;SDS011;51940;52.126;-0.994;2023-01-04T12:47:01;21.10;;;3.20;;
62947;SDS011;51940;52.126;-0.994;2023-01-04T12:50:06;17.00;;;2.80;;
62947;SDS011;51940;52.126;-0.994;2023-01-04T12:52:39;20.20;;;3.30;;
62947;SDS011;51940;52.126;-0.994;2023-01-04T12:57:59;14.30;;;3.20;;
62947;SDS011;51940;52.126;-0.994;2023-01-04T13:05:52;25.90;;;4.00;;
62947;SDS011;51940;52.126;-0.994;2023-01-04T13:08:22;18.70;;;3.50;;
62947;SDS011;51940;52.126;-0.994;2023-01-04T13:10:49;28.80;;;3.60;;
62947;SDS011;51940;52.126;-0.994;2023-01-04T13:20:50;22.70;;;3.20;;
62947;SDS011;51940;52.126;-0.994;2023-01-04T13:23:15;22.50;;;3.60;;
62947;SDS011;51940;52.126;-0.994;2023-01-04T13:25:41;27.10;;;3.50;;
62947;SDS011;51940;52.126;-0.994;2023-01-04T13:28:14;21.80;;;4.00;;
62947;SDS011;51940;52.126;-0.994;2023-01-04T13:33:08;25.20;;;3.70;;
62947;SDS011;51940;52.126;-0.994;2023-01-04T13:35:38;27.50;;;3.30;;
62947;SDS011;51940;52.126;-0.994;2023-01-04T13:38:09;19.00;;;3.60;;
62947;SDS011;51940;52.126;-0.994;2023-01-04T13:40:42;21.70;;;3.40;;
62947;SDS011;51940;52.126;-0.994;2023-01-04T13:43:28;20.60;;;3.00;;
62947;SDS011;51940;52.126;-0.994;2023-01-04T13:48:38;20.60;;;3.00;;
62947;SDS011;51940;52.126;-0.994;2023-01-04T13:53:38;24.50;;;4.00;;
62947;SDS011;51940;52.126;-0.994;2023-01-04T13:56:04;21.90;;;3.30;;
62947;SDS011;51940;52.126;-0.994;2023-01-04T13:58:30;21.70;;;3.70;;
62947;SDS011;51940;52.126;-0.994;2023-01-04T14:03:33;21.50;;;3.40;;
62947;SDS011;51940;52.126;-0.994;2023-01-04T14:06:26;20.40;;;3.40;;
62947;SDS011;51940;52.126;-0.994;2023-01-04T14:15:03;15.70;;;2.80;;
62947;SDS011;51940;52.126;-0.994;2023-01-04T14:17:51;23.90;;;3.50;;
62947;SDS011;51940;52.126;-0.994;2023-01-04T14:30:47;19.20;;;3.20;;
62947;SDS011;51940;52.126;-0.994;2023-01-04T14:33:21;20.00;;;3.80;;
62947;SDS011;51940;52.126;-0.994;2023-01-04T14:41:14;20.50;;;4.00;;
62947;SDS011;51940;52.126;-0.994;2023-01-04T14:44:43;21.00;;;4.20;;
62947;SDS011;51940;52.126;-0.994;2023-01-04T14:46:40;21.10;;;3.90;;
62947;SDS011;51940;52.126;-0.994;2023-01-04T14:49:07;18.10;;;3.60;;
62947;SDS011;51940;52.126;-0.994;2023-01-04T14:51:35;17.90;;;3.30;;
62947;SDS011;51940;52.126;-0.994;2023-01-04T14:54:05;16.60;;;3.50;;
62947;SDS011;51940;52.126;-0.994;2023-01-04T14:56:31;23.80;;;3.30;;
62947;SDS011;51940;52.126;-0.994;2023-01-04T14:58:57;18.10;;;2.90;;
62947;SDS011;51940;52.126;-0.994;2023-01-04T15:01:22;16.50;;;3.10;;
62947;SDS011;51940;52.126;-0.994;2023-01-04T15:03:48;19.40;;;3.40;;
62947;SDS011;51940;52.126;-0.994;2023-01-04T15:06:13;19.60;;;3.50;;
62947;SDS011;51940;52.126;-0.994;2023-01-04T15:08:38;24.50;;;3.80;;
62947;SDS011;51940;52.126;-0.994;2023-01-04T15:11:04;21.50;;;3.80;;
62947;SDS011;51940;52.126;-0.994;2023-01-04T15:13:29;25.90;;;3.60;;
62947;SDS011;51940;52.126;-0.994;2023-01-04T15:15:55;20.50;;;3.40;;
62947;SDS011;51940;52.126;-0.994;2023-01-04T15:18:21;21.90;;;3.10;;
62947;SDS011;51940;52.126;-0.994;2023-01-04T15:20:47;18.60;;;3.30;;
62947;SDS011;51940;52.126;-0.994;2023-01-04T15:23:12;15.80;;;2.80;;
62947;SDS011;51940;52.126;-0.994;2023-01-04T15:25:38;20.30;;;3.30;;
62947;SDS011;51940;52.126;-0.994;2023-01-04T15:28:05;17.90;;;3.00;;
62947;SDS011;51940;52.126;-0.994;2023-01-04T15:30:31;21.90;;;3.40;;
62947;SDS011;51940;52.126;-0.994;2023-01-04T15:32:56;17.90;;;3.30;;
62947;SDS011;51940;52.126;-0.994;2023-01-04T15:35:22;20.20;;;3.20;;
62947;SDS011;51940;52.126;-0.994;2023-01-04T15:37:47;15.50;;;2.50;;
62947;SDS011;51940;52.126;-0.994;2023-01-04T15:40:14;19.80;;;3.10;;
62947;SDS011;51940;52.126;-0.994;2023-01-04T15:42:41;18.60;;;2.80;;
62947;SDS011;51940;52.126;-0.994;2023-01-04T15:45:22;13.00;;;2.90;;
62947;SDS011;51940;52.126;-0.994;2023-01-04T15:47:49;16.20;;;2.30;;
62947;SDS011;51940;52.126;-0.994;2023-01-04T15:50:15;12.70;;;2.10;;
62947;SDS011;51940;52.126;-0.994;2023-01-04T15:52:42;10.10;;;2.00;;
62947;SDS011;51940;52.126;-0.994;2023-01-04T15:55:08;11.30;;;2.20;;
62947;SDS011;51940;52.126;-0.994;2023-01-04T15:57:37;8.60;;;2.20;;
62947;SDS011;51940;52.126;-0.994;2023-01-04T16:00:03;10.90;;;1.50;;
62947;SDS011;51940;52.126;-0.994;2023-01-04T16:02:29;10.60;;;1.90;;
62947;SDS011;51940;52.126;-0.994;2023-01-04T16:04:54;10.00;;;2.30;;
62947;SDS011;51940;52.126;-0.994;2023-01-04T16:07:20;6.60;;;1.40;;
62947;SDS011;51940;52.126;-0.994;2023-01-04T16:09:45;10.10;;;1.90;;
62947;SDS011;51940;52.126;-0.994;2023-01-04T16:12:11;14.30;;;2.20;;
62947;SDS011;51940;52.126;-0.994;2023-01-04T16:14:55;13.70;;;2.60;;
62947;SDS011;51940;52.126;-0.994;2023-01-04T16:17:21;11.40;;;2.20;;
62947;SDS011;51940;52.126;-0.994;2023-01-04T16:19:46;9.90;;;2.60;;
62947;SDS011;51940;52.126;-0.994;2023-01-04T16:22:11;10.30;;;2.30;;
62947;SDS011;51940;52.126;-0.994;2023-01-04T16:24:37;6.70;;;2.40;;
62947;SDS011;51940;52.126;-0.994;2023-01-04T16:27:02;16.40;;;2.80;;
62947;SDS011;51940;52.126;-0.994;2023-01-04T16:29:28;15.60;;;2.40;;
62947;SDS011;51940;52.126;-0.994;2023-01-04T16:31:54;16.00;;;2.80;;
62947;SDS011;51940;52.126;-0.994;2023-01-04T16:34:19;13.20;;;2.40;;
62947;SDS011;51940;52.126;-0.994;2023-01-04T16:36:45;10.40;;;1.90;;
62947;SDS011;51940;52.126;-0.994;2023-01-04T16:39:13;11.90;;;2.10;;
62947;SDS011;51940;52.126;-0.994;2023-01-04T16:41:38;13.70;;;2.20;;
62947;SDS011;51940;52.126;-0.994;2023-01-04T16:44:04;9.50;;;2.30;;
62947;SDS011;51940;52.126;-0.994;2023-01-04T16:46:31;10.60;;;2.50;;
62947;SDS011;51940;52.126;-0.994;2023-01-04T16:51:33;14.00;;;2.10;;
62947;SDS011;51940;52.126;-0.994;2023-01-04T16:54:02;13.00;;;2.20;;
62947;SDS011;51940;52.126;-0.994;2023-01-04T16:56:30;12.40;;;2.90;;
62947;SDS011;51940;52.126;-0.994;2023-01-04T16:58:56;12.30;;;2.30;;
62947;SDS011;51940;52.126;-0.994;2023-01-04T17:03:48;12.80;;;2.80;;